createdAt,value
2019-03-16T00:01:05.867Z,7.63
2019-03-16T00:06:13.202Z,8.57
2019-03-16T00:11:19.972Z,9.13
2019-03-16T00:16:27.981Z,9.37
2019-03-16T00:21:35.022Z,8.90
2019-03-16T00:26:42.526Z,9.03
2019-03-16T00:31:49.249Z,10.10
2019-03-16T00:36:56.834Z,10.30
2019-03-16T00:42:03.938Z,9.30
2019-03-16T00:47:11.761Z,10.70
2019-03-16T00:52:19.520Z,9.97
2019-03-16T00:57:26.439Z,9.90
2019-03-16T01:02:33.395Z,10.23
2019-03-16T01:07:41.024Z,11.30
2019-03-16T01:12:47.211Z,10.43
2019-03-16T01:17:53.890Z,10.30
2019-03-16T01:23:00.454Z,11.13
2019-03-16T01:28:07.862Z,11.27
2019-03-16T01:33:15.671Z,10.87
2019-03-16T01:38:22.615Z,11.57
2019-03-16T01:43:30.112Z,10.97
2019-03-16T01:48:37.783Z,10.43
2019-03-16T01:53:43.752Z,10.20
2019-03-16T01:58:49.944Z,10.47
2019-03-16T02:03:57.700Z,10.30
2019-03-16T02:09:06.156Z,10.70
2019-03-16T02:14:13.340Z,10.77
2019-03-16T02:19:20.897Z,11.07
2019-03-16T02:24:29.119Z,11.00
2019-03-16T02:29:35.653Z,10.47
2019-03-16T02:34:43.044Z,10.47
2019-03-16T02:39:50.888Z,10.80
2019-03-16T02:44:57.669Z,10.37
2019-03-16T02:50:04.323Z,10.73
2019-03-16T02:55:10.626Z,11.40
2019-03-16T03:00:18.819Z,11.63
2019-03-16T03:05:25.001Z,11.27
2019-03-16T03:10:32.675Z,11.53
2019-03-16T03:15:40.461Z,11.57
2019-03-16T03:20:48.162Z,12.97
2019-03-16T03:25:54.669Z,12.83
2019-03-16T03:31:02.013Z,15.47
2019-03-16T03:36:09.620Z,19.10
2019-03-16T03:41:15.852Z,19.00
2019-03-16T03:46:23.703Z,18.83
2019-03-16T03:51:31.225Z,19.23
2019-03-16T03:56:39.235Z,18.83
2019-03-16T04:01:47.430Z,19.70
2019-03-16T04:06:54.397Z,20.40
2019-03-16T04:12:00.691Z,21.20
2019-03-16T04:17:08.528Z,19.77
2019-03-16T04:22:16.043Z,19.23
2019-03-16T04:27:23.715Z,18.67
2019-03-16T04:32:31.371Z,18.50
2019-03-16T04:37:38.956Z,18.30
2019-03-16T04:42:45.372Z,18.20
2019-03-16T04:47:53.011Z,18.17
2019-03-16T04:53:00.095Z,19.23
2019-03-16T04:58:07.772Z,19.83
2019-03-16T05:03:13.698Z,19.47
2019-03-16T05:08:19.655Z,19.57
2019-03-16T05:13:26.460Z,17.87
2019-03-16T05:18:33.334Z,16.43
2019-03-16T05:23:39.532Z,18.43
2019-03-16T05:28:47.089Z,18.27
2019-03-16T05:33:54.231Z,16.50
2019-03-16T05:39:01.838Z,16.60
2019-03-16T05:44:09.582Z,16.53
2019-03-16T05:49:15.687Z,15.67
2019-03-16T05:54:22.671Z,17.13
2019-03-16T05:59:29.409Z,16.60
2019-03-16T06:04:37.134Z,15.60
2019-03-16T06:09:44.147Z,16.70
2019-03-16T06:14:51.579Z,17.63
2019-03-16T06:19:59.414Z,17.53
2019-03-16T06:25:06.684Z,17.60
2019-03-16T06:30:14.325Z,18.67
2019-03-16T06:35:24.928Z,18.20
2019-03-16T06:40:28.909Z,16.53
2019-03-16T06:45:34.966Z,16.17
2019-03-16T06:50:41.074Z,17.13
2019-03-16T06:55:48.573Z,15.10
2019-03-16T07:00:54.533Z,15.60
2019-03-16T07:06:00.797Z,15.87
2019-03-16T07:11:06.779Z,16.23
2019-03-16T07:16:13.746Z,17.63
2019-03-16T07:21:19.938Z,18.57
2019-03-16T07:26:26.355Z,21.23
2019-03-16T07:31:33.419Z,18.30
2019-03-16T07:36:40.799Z,19.80
2019-03-16T07:41:48.814Z,20.70
2019-03-16T07:46:54.993Z,21.07
2019-03-16T07:52:02.624Z,22.10
2019-03-16T07:57:09.677Z,20.27
2019-03-16T08:02:15.849Z,20.00
2019-03-16T08:07:22.065Z,19.30
2019-03-16T08:12:28.145Z,32.90
2019-03-16T08:17:34.126Z,20.33
2019-03-16T08:22:40.515Z,19.00
2019-03-16T08:27:54.223Z,20.33
2019-03-16T08:32:56.360Z,20.00
2019-03-16T08:38:03.650Z,16.27
2019-03-16T08:43:11.519Z,12.07
2019-03-16T08:48:22.823Z,16.17
2019-03-16T08:53:25.626Z,15.90
2019-03-16T08:58:33.214Z,14.20
2019-03-16T09:03:43.888Z,13.53
2019-03-16T09:08:49.451Z,15.00
2019-03-16T09:13:57.034Z,17.27
2019-03-16T09:19:04.751Z,18.50
2019-03-16T09:24:12.117Z,16.63
2019-03-16T09:29:19.646Z,16.83
2019-03-16T09:34:27.019Z,19.10
2019-03-16T09:39:34.162Z,20.53
2019-03-16T09:44:41.814Z,20.17
2019-03-16T09:49:48.228Z,23.00
2019-03-16T09:54:55.538Z,21.77
2019-03-16T10:00:03.510Z,22.90
2019-03-16T10:05:09.745Z,21.50
2019-03-16T10:10:17.410Z,20.77
2019-03-16T10:15:23.984Z,20.57
2019-03-16T10:20:30.739Z,19.77
2019-03-16T10:25:38.383Z,17.27
2019-03-16T10:30:44.345Z,18.00
2019-03-16T10:35:51.396Z,17.27
2019-03-16T10:40:59.134Z,19.30
2019-03-16T10:46:08.470Z,17.50
2019-03-16T10:51:15.689Z,12.87
2019-03-16T10:56:22.014Z,11.00
2019-03-16T11:01:29.663Z,10.83
2019-03-16T11:06:36.019Z,10.73
2019-03-16T11:11:42.396Z,8.13
2019-03-16T11:16:50.383Z,8.60
2019-03-16T11:21:57.763Z,6.83
2019-03-16T11:27:03.920Z,5.60
2019-03-16T11:32:09.909Z,5.47
2019-03-16T11:37:17.762Z,7.17
2019-03-16T11:42:24.373Z,7.03
2019-03-16T11:47:31.479Z,4.73
2019-03-16T11:52:39.215Z,5.40
2019-03-16T11:57:45.747Z,4.90
2019-03-16T12:02:53.054Z,5.27
2019-03-16T12:08:00.682Z,5.60
2019-03-16T12:13:17.313Z,5.30
2019-03-16T12:18:16.172Z,8.90
2019-03-16T12:23:23.367Z,4.90
2019-03-16T12:28:29.424Z,5.57
2019-03-16T12:33:35.326Z,5.97
2019-03-16T12:38:43.015Z,6.10
2019-03-16T12:43:50.682Z,6.87
2019-03-16T12:48:58.261Z,7.47
2019-03-16T12:54:04.299Z,7.47
2019-03-16T12:59:11.113Z,9.07
2019-03-16T13:04:18.739Z,7.63
2019-03-16T13:09:25.090Z,7.93
2019-03-16T13:14:31.178Z,8.83
2019-03-16T13:19:38.688Z,8.47
2019-03-16T13:24:44.698Z,10.20
2019-03-16T13:29:58.825Z,9.83
2019-03-16T13:35:01.536Z,9.17
2019-03-16T13:40:11.091Z,9.73
2019-03-16T13:45:17.752Z,8.57
2019-03-16T13:50:23.967Z,9.97
2019-03-16T13:55:31.839Z,9.73
2019-03-16T14:00:39.397Z,8.20
2019-03-16T14:05:47.331Z,7.20
2019-03-16T14:10:54.240Z,5.20
2019-03-16T14:16:02.369Z,4.13
2019-03-16T14:21:09.869Z,4.50
2019-03-16T14:26:17.533Z,4.43
2019-03-16T14:31:24.486Z,4.20
2019-03-16T14:36:31.809Z,4.30
2019-03-16T14:41:39.399Z,4.23
2019-03-16T14:46:46.965Z,4.80
2019-03-16T14:51:53.750Z,4.97
2019-03-16T14:57:02.047Z,5.00
2019-03-16T15:02:09.968Z,4.43
2019-03-16T15:07:16.032Z,4.77
2019-03-16T15:12:22.945Z,4.57
2019-03-16T15:17:29.548Z,4.47
2019-03-16T15:22:36.329Z,5.10
2019-03-16T15:27:43.371Z,4.63
2019-03-16T15:32:50.927Z,4.77
2019-03-16T15:37:57.015Z,5.50
2019-03-16T15:43:03.787Z,5.43
2019-03-16T15:48:11.349Z,5.50
2019-03-16T15:53:19.013Z,5.70
2019-03-16T15:58:25.341Z,5.97
2019-03-16T16:03:33.317Z,6.80
2019-03-16T16:08:39.662Z,6.43
2019-03-16T16:13:47.229Z,5.80
2019-03-16T16:18:53.340Z,6.23
2019-03-16T16:23:59.757Z,6.33
2019-03-16T16:29:07.423Z,7.30
2019-03-16T16:34:14.973Z,14.23
2019-03-16T16:39:22.933Z,6.30
2019-03-16T16:44:30.496Z,5.53
2019-03-16T16:49:38.049Z,5.30
2019-03-16T16:54:44.047Z,5.60
2019-03-16T16:59:51.500Z,5.60
2019-03-16T17:04:58.165Z,6.10
2019-03-16T17:10:04.917Z,5.57
2019-03-16T17:15:12.586Z,6.47
2019-03-16T17:20:19.424Z,6.53
2019-03-16T17:25:26.384Z,6.47
2019-03-16T17:30:32.488Z,6.80
2019-03-16T17:35:38.877Z,8.87
2019-03-16T17:40:44.929Z,7.33
2019-03-16T17:45:51.948Z,6.67
2019-03-16T17:50:59.784Z,7.73
2019-03-16T17:56:07.156Z,12.30
2019-03-16T18:01:13.748Z,12.27
2019-03-16T18:06:20.941Z,9.40
2019-03-16T18:11:28.840Z,13.47
2019-03-16T18:16:35.889Z,12.17
2019-03-16T18:21:43.015Z,9.70
2019-03-16T18:26:48.915Z,11.57
2019-03-16T18:32:07.370Z,15.40
2019-03-16T18:37:03.799Z,17.20
2019-03-16T18:42:11.494Z,10.60
2019-03-16T18:47:19.656Z,12.00
2019-03-16T18:52:26.503Z,11.57
2019-03-16T18:57:33.684Z,10.67
2019-03-16T19:02:41.515Z,12.53
2019-03-16T19:07:49.072Z,11.43
2019-03-16T19:12:57.976Z,11.53
2019-03-16T19:18:04.990Z,12.93
2019-03-16T19:23:12.816Z,12.27
2019-03-16T19:28:20.841Z,12.77
2019-03-16T19:33:28.702Z,12.30
2019-03-16T19:38:35.023Z,22.53
2019-03-16T19:43:44.088Z,13.20
2019-03-16T19:48:51.870Z,11.00
2019-03-16T19:53:59.563Z,11.73
2019-03-16T19:59:07.358Z,12.30
2019-03-16T20:04:15.213Z,12.00
2019-03-16T20:09:24.761Z,12.67
2019-03-16T20:14:34.071Z,13.07
2019-03-16T20:19:41.414Z,12.50
2019-03-16T20:24:49.394Z,14.30
2019-03-16T20:29:56.972Z,13.53
2019-03-16T20:35:04.971Z,14.10
2019-03-16T20:40:13.896Z,13.80
2019-03-16T20:45:22.121Z,13.33
2019-03-16T20:50:29.908Z,13.10
2019-03-16T20:55:40.334Z,13.43
2019-03-16T21:00:51.368Z,12.97
2019-03-16T21:05:59.101Z,11.80
2019-03-16T21:11:11.300Z,12.50
2019-03-16T21:16:22.367Z,10.87
2019-03-16T21:21:31.529Z,10.77
2019-03-16T21:26:52.885Z,10.47
2019-03-16T21:32:01.157Z,11.23
2019-03-16T21:37:10.478Z,11.73
2019-03-16T21:42:18.280Z,11.57
2019-03-16T21:47:24.481Z,12.80
2019-03-16T21:52:30.614Z,11.90
2019-03-16T21:57:38.671Z,11.83
2019-03-16T22:02:46.585Z,12.70
2019-03-16T22:07:54.090Z,10.77
2019-03-16T22:13:02.285Z,11.10
2019-03-16T22:18:10.100Z,11.20
2019-03-16T22:23:17.812Z,11.40
2019-03-16T22:28:23.837Z,11.83
2019-03-16T22:33:34.175Z,10.87
2019-03-16T22:38:41.308Z,9.20
2019-03-16T22:43:50.670Z,8.40
2019-03-16T22:49:00.669Z,9.00
2019-03-16T22:54:08.508Z,10.30
2019-03-16T22:59:14.713Z,11.30
2019-03-16T23:04:22.137Z,10.67
2019-03-16T23:09:29.682Z,11.10
2019-03-16T23:14:36.664Z,10.13
2019-03-16T23:19:44.351Z,8.17
2019-03-16T23:24:51.969Z,7.70
2019-03-16T23:29:59.554Z,6.17
2019-03-16T23:35:08.963Z,5.17
2019-03-16T23:40:17.398Z,4.80
2019-03-16T23:45:24.355Z,4.63
2019-03-16T23:50:31.926Z,4.53
2019-03-16T23:55:38.643Z,4.93
